createdAt,value
2022-08-14T00:00:45.671Z,9.32
2022-08-14T00:03:29.452Z,9.38
2022-08-14T00:06:01.109Z,10.25
2022-08-14T00:08:45.314Z,10.70
2022-08-14T00:11:14.622Z,9.37
2022-08-14T00:13:51.737Z,8.87
2022-08-14T00:16:41.764Z,9.15
2022-08-14T00:19:19.406Z,10.20
2022-08-14T00:21:51.940Z,9.45
2022-08-14T00:24:28.937Z,9.70
2022-08-14T00:27:02.065Z,10.32
2022-08-14T00:29:40.413Z,10.27
2022-08-14T00:32:50.503Z,9.13
2022-08-14T00:35:07.784Z,10.57
2022-08-14T00:37:44.020Z,9.77
2022-08-14T00:40:27.493Z,9.60
2022-08-14T00:43:04.887Z,11.18
2022-08-14T00:45:33.944Z,10.48
2022-08-14T00:48:03.151Z,12.65
2022-08-14T00:50:34.443Z,10.38
2022-08-14T00:53:10.595Z,10.68
2022-08-14T00:55:41.445Z,10.85
2022-08-14T00:58:32.940Z,11.18
2022-08-14T01:01:06.046Z,11.60
2022-08-14T01:03:39.641Z,11.00
2022-08-14T01:06:16.922Z,11.32
2022-08-14T01:08:51.495Z,10.45
2022-08-14T01:11:35.247Z,13.00
2022-08-14T01:14:25.923Z,11.30
2022-08-14T01:16:55.393Z,13.73
2022-08-14T01:22:21.186Z,10.90
2022-08-14T01:25:07.918Z,11.02
2022-08-14T01:27:53.844Z,11.23
2022-08-14T01:30:28.592Z,9.80
2022-08-14T01:32:59.821Z,11.70
2022-08-14T01:36:04.079Z,11.05
2022-08-14T01:38:57.984Z,10.55
2022-08-14T01:41:56.194Z,10.50
2022-08-14T01:44:54.377Z,11.68
2022-08-14T01:47:44.290Z,11.25
2022-08-14T01:50:34.393Z,11.52
2022-08-14T01:53:23.744Z,10.88
2022-08-14T01:56:03.479Z,10.55
2022-08-14T01:58:33.154Z,11.20
2022-08-14T02:01:05.152Z,11.15
2022-08-14T02:03:41.972Z,11.68
2022-08-14T02:06:32.501Z,12.20
2022-08-14T02:09:04.421Z,11.18
2022-08-14T02:11:54.555Z,10.73
2022-08-14T02:14:31.528Z,11.43
2022-08-14T02:17:01.872Z,12.27
2022-08-14T02:19:35.771Z,10.07
2022-08-14T02:22:06.297Z,11.02
2022-08-14T02:24:45.201Z,11.13
2022-08-14T02:28:22.294Z,10.48
2022-08-14T02:30:11.103Z,12.05
2022-08-14T02:32:42.936Z,12.73
2022-08-14T02:35:17.993Z,12.50
2022-08-14T02:37:49.317Z,11.60
2022-08-14T02:40:22.654Z,10.00
2022-08-14T02:43:03.745Z,12.73
2022-08-14T02:45:38.832Z,11.27
2022-08-14T02:49:02.102Z,12.40
2022-08-14T02:51:10.553Z,10.70
2022-08-14T02:53:42.856Z,10.95
2022-08-14T02:56:30.632Z,12.40
2022-08-14T02:59:10.215Z,12.10
2022-08-14T03:01:43.583Z,10.65
2022-08-14T03:04:20.184Z,13.75
2022-08-14T03:07:06.115Z,14.35
2022-08-14T03:10:25.028Z,13.55
2022-08-14T03:12:31.446Z,11.70
2022-08-14T03:15:14.217Z,12.77
2022-08-14T03:17:57.181Z,13.18
2022-08-14T03:20:29.092Z,11.75
2022-08-14T03:23:04.255Z,12.00
2022-08-14T03:25:37.349Z,12.18
2022-08-14T03:28:14.406Z,12.38
2022-08-14T03:31:00.305Z,12.70
2022-08-14T03:33:37.810Z,12.45
2022-08-14T03:37:39.354Z,11.45
2022-08-14T03:39:14.626Z,12.38
2022-08-14T03:41:51.411Z,11.57
2022-08-14T03:45:20.370Z,12.65
2022-08-14T03:47:12.170Z,11.63
2022-08-14T03:49:50.197Z,13.57
2022-08-14T03:52:55.667Z,11.63
2022-08-14T03:55:13.064Z,11.43
2022-08-14T03:57:44.078Z,12.63
2022-08-14T04:00:44.348Z,13.25
2022-08-14T04:03:09.108Z,11.80
2022-08-14T04:05:43.466Z,11.88
2022-08-14T04:08:30.291Z,12.35
2022-08-14T04:13:35.403Z,15.88
2022-08-14T04:16:06.925Z,11.43
2022-08-14T04:18:46.276Z,14.13
2022-08-14T04:21:17.013Z,12.98
2022-08-14T04:23:49.206Z,11.77
2022-08-14T04:26:42.004Z,12.75
2022-08-14T04:29:15.563Z,12.82
2022-08-14T04:32:59.062Z,13.40
2022-08-14T04:34:41.980Z,15.02
2022-08-14T04:37:29.280Z,11.50
2022-08-14T04:40:19.616Z,14.02
2022-08-14T04:43:06.178Z,13.32
2022-08-14T04:45:38.744Z,17.35
2022-08-14T04:48:13.206Z,13.65
2022-08-14T04:50:49.096Z,15.48
2022-08-14T04:53:26.422Z,15.98
2022-08-14T04:56:10.378Z,12.57
2022-08-14T04:58:42.454Z,13.23
2022-08-14T05:01:17.865Z,12.23
2022-08-14T05:03:50.585Z,15.77
2022-08-14T05:06:37.614Z,11.10
2022-08-14T05:09:14.429Z,12.57
2022-08-14T05:11:44.170Z,12.70
2022-08-14T05:14:33.108Z,12.38
2022-08-14T05:17:02.594Z,11.70
2022-08-14T05:19:32.198Z,11.32
2022-08-14T05:22:16.414Z,13.90
2022-08-14T05:24:50.497Z,13.38
2022-08-14T05:27:22.982Z,12.30
2022-08-14T05:32:28.115Z,13.18
2022-08-14T05:34:59.547Z,14.02
2022-08-14T05:37:31.004Z,15.32
2022-08-14T05:40:02.030Z,13.93
2022-08-14T05:42:34.292Z,12.07
2022-08-14T05:45:11.128Z,12.85
2022-08-14T05:47:43.162Z,13.73
2022-08-14T05:50:18.759Z,16.95
2022-08-14T05:52:51.994Z,14.52
2022-08-14T05:57:59.358Z,15.73
2022-08-14T06:00:37.201Z,12.75
2022-08-14T06:03:10.893Z,13.65
2022-08-14T06:05:40.206Z,19.63
2022-08-14T06:08:31.391Z,13.55
2022-08-14T06:11:09.340Z,15.30
2022-08-14T06:13:45.238Z,16.52
2022-08-14T06:16:18.412Z,16.08
2022-08-14T06:18:52.620Z,13.25
2022-08-14T06:21:23.860Z,13.35
2022-08-14T06:23:54.194Z,13.25
2022-08-14T06:26:23.120Z,13.63
2022-08-14T06:28:59.869Z,13.35
2022-08-14T06:31:29.042Z,11.68
2022-08-14T06:35:02.281Z,12.60
2022-08-14T06:36:47.224Z,13.88
2022-08-14T06:39:17.706Z,12.80
2022-08-14T06:42:06.431Z,16.65
2022-08-14T06:44:35.841Z,13.73
2022-08-14T06:47:06.115Z,13.00
2022-08-14T06:49:40.478Z,14.57
2022-08-14T06:52:17.463Z,12.13
2022-08-14T06:54:49.863Z,13.13
2022-08-14T06:57:21.690Z,11.48
2022-08-14T06:59:51.949Z,10.35
2022-08-14T07:02:43.622Z,13.98
2022-08-14T07:05:30.363Z,11.18
2022-08-14T07:08:00.543Z,11.52
2022-08-14T07:10:31.925Z,11.00
2022-08-14T07:13:04.191Z,13.40
2022-08-14T07:15:39.570Z,9.70
2022-08-14T07:18:10.502Z,13.05
2022-08-14T07:20:40.599Z,10.48
2022-08-14T07:23:20.462Z,10.65
2022-08-14T07:25:57.004Z,9.48
2022-08-14T07:28:31.452Z,10.50
2022-08-14T07:31:05.232Z,10.73
2022-08-14T07:33:42.000Z,11.77
2022-08-14T07:36:27.528Z,11.85
2022-08-14T07:39:00.646Z,12.68
2022-08-14T07:41:35.660Z,36.40
2022-08-14T07:44:28.729Z,35.45
2022-08-14T07:46:54.640Z,11.43
2022-08-14T07:49:24.496Z,8.55
2022-08-14T07:51:56.335Z,8.15
2022-08-14T07:54:30.377Z,7.60
2022-08-14T07:57:11.924Z,8.18
2022-08-14T07:59:44.381Z,9.40
2022-08-14T08:02:20.553Z,9.15
2022-08-14T08:04:55.181Z,11.63
2022-08-14T08:07:31.780Z,12.60
2022-08-14T08:10:40.663Z,8.23
2022-08-14T08:13:22.305Z,7.50
2022-08-14T08:15:57.406Z,7.85
2022-08-14T08:18:29.424Z,7.57
2022-08-14T08:21:00.665Z,12.02
2022-08-14T08:23:40.469Z,7.15
2022-08-14T08:26:12.642Z,7.55
2022-08-14T08:28:44.646Z,7.90
2022-08-14T08:31:13.776Z,6.20
2022-08-14T08:33:43.653Z,6.70
2022-08-14T08:36:19.224Z,6.13
2022-08-14T08:39:17.145Z,5.85
2022-08-14T08:41:49.426Z,5.78
2022-08-14T08:44:33.004Z,5.50
2022-08-14T08:47:06.104Z,5.90
2022-08-14T08:49:52.857Z,7.18
2022-08-14T08:52:31.605Z,8.93
2022-08-14T08:55:04.967Z,6.95
2022-08-14T08:57:37.622Z,5.72
2022-08-14T09:00:24.371Z,5.43
2022-08-14T09:02:57.701Z,5.22
2022-08-14T09:05:28.771Z,5.28
2022-08-14T09:08:26.561Z,5.22
2022-08-14T09:11:02.367Z,5.15
2022-08-14T09:13:33.151Z,4.90
2022-08-14T09:16:18.615Z,5.05
2022-08-14T09:18:48.859Z,4.70
2022-08-14T09:21:18.390Z,4.70
2022-08-14T09:24:26.785Z,4.47
2022-08-14T09:26:38.523Z,4.57
2022-08-14T09:29:10.546Z,4.47
2022-08-14T09:31:52.940Z,4.78
2022-08-14T09:34:47.410Z,5.30
2022-08-14T09:38:01.435Z,5.65
2022-08-14T09:40:47.842Z,6.13
2022-08-14T09:43:32.043Z,6.13
2022-08-14T09:46:02.672Z,5.43
2022-08-14T09:48:37.599Z,5.53
2022-08-14T09:51:09.849Z,6.75
2022-08-14T09:54:19.403Z,6.93
2022-08-14T09:56:46.993Z,6.45
2022-08-14T10:02:01.325Z,6.63
2022-08-14T10:04:36.001Z,6.82
2022-08-14T10:07:10.119Z,5.70
2022-08-14T10:09:59.465Z,6.72
2022-08-14T10:12:49.991Z,6.20
2022-08-14T10:18:17.274Z,5.10
2022-08-14T10:21:00.934Z,5.95
2022-08-14T10:23:49.773Z,4.68
2022-08-14T10:26:23.126Z,5.22
2022-08-14T10:29:20.251Z,5.18
2022-08-14T10:32:00.102Z,5.80
2022-08-14T10:34:36.609Z,5.57
2022-08-14T10:37:14.665Z,6.18
2022-08-14T10:40:01.693Z,5.43
2022-08-14T10:42:40.469Z,5.90
2022-08-14T10:45:21.812Z,5.97
2022-08-14T10:48:09.221Z,6.93
2022-08-14T10:50:46.429Z,6.38
2022-08-14T10:53:17.145Z,5.85
2022-08-14T10:55:48.191Z,6.18
2022-08-14T10:58:34.146Z,6.60
2022-08-14T11:01:05.424Z,5.50
2022-08-14T11:03:56.883Z,6.82
2022-08-14T11:06:27.248Z,6.05
2022-08-14T11:09:17.027Z,6.82
2022-08-14T11:11:49.383Z,8.20
2022-08-14T11:14:26.574Z,7.60
2022-08-14T11:16:57.941Z,6.53
2022-08-14T11:19:27.621Z,5.95
2022-08-14T11:22:01.119Z,6.20
2022-08-14T11:24:53.871Z,7.28
2022-08-14T11:27:33.153Z,6.20
2022-08-14T11:30:50.781Z,7.00
2022-08-14T11:32:59.917Z,7.07
2022-08-14T11:38:19.959Z,7.15
2022-08-14T11:40:52.487Z,10.82
2022-08-14T11:43:22.613Z,11.90
2022-08-14T11:46:03.737Z,12.32
2022-08-14T11:49:02.526Z,11.02
2022-08-14T11:51:35.923Z,9.82
2022-08-14T11:54:20.215Z,12.02
2022-08-14T11:57:06.329Z,10.63
2022-08-14T11:59:35.390Z,11.13
2022-08-14T12:03:00.600Z,12.73
2022-08-14T12:05:03.979Z,9.82
2022-08-14T12:10:26.992Z,8.13
2022-08-14T12:12:56.403Z,9.70
2022-08-14T12:15:35.936Z,6.05
2022-08-14T12:18:06.502Z,8.95
2022-08-14T12:20:52.476Z,6.43
2022-08-14T12:23:24.817Z,7.00
2022-08-14T12:26:32.018Z,6.55
2022-08-14T12:29:08.404Z,6.05
2022-08-14T12:31:44.587Z,5.80
2022-08-14T12:34:19.985Z,5.53
2022-08-14T12:36:50.000Z,5.78
2022-08-14T12:39:21.223Z,6.00
2022-08-14T12:41:57.353Z,5.47
2022-08-14T12:44:37.344Z,6.63
2022-08-14T12:47:09.637Z,6.60
2022-08-14T12:49:52.500Z,6.75
2022-08-14T12:52:42.942Z,8.48
2022-08-14T12:55:21.049Z,6.20
2022-08-14T12:57:53.736Z,6.97
2022-08-14T13:00:25.940Z,6.88
2022-08-14T13:02:56.814Z,6.35
2022-08-14T13:07:57.335Z,6.53
2022-08-14T13:10:51.339Z,6.63
2022-08-14T13:13:22.288Z,6.60
2022-08-14T13:15:57.435Z,6.80
2022-08-14T13:18:30.444Z,4.97
2022-08-14T13:21:02.383Z,5.18
2022-08-14T13:23:37.545Z,5.43
2022-08-14T13:26:08.398Z,5.50
2022-08-14T13:29:02.072Z,5.60
2022-08-14T13:31:37.017Z,6.43
2022-08-14T13:34:06.860Z,5.78
2022-08-14T13:36:54.647Z,6.22
2022-08-14T13:39:29.757Z,6.18
2022-08-14T13:42:08.073Z,5.93
2022-08-14T13:44:42.485Z,6.40
2022-08-14T13:47:15.341Z,6.28
2022-08-14T13:49:57.192Z,6.20
2022-08-14T13:52:51.286Z,6.35
2022-08-14T13:55:21.871Z,6.22
2022-08-14T13:58:02.868Z,7.18
2022-08-14T14:00:52.119Z,5.68
2022-08-14T14:03:30.525Z,7.07
2022-08-14T14:06:03.442Z,6.30
2022-08-14T14:08:45.816Z,5.15
2022-08-14T14:11:23.896Z,5.93
2022-08-14T14:13:55.175Z,6.15
2022-08-14T14:16:30.701Z,5.53
2022-08-14T14:19:08.736Z,6.70
2022-08-14T14:21:40.443Z,5.88
2022-08-14T14:24:15.511Z,5.90
2022-08-14T14:26:50.171Z,6.28
2022-08-14T14:29:24.212Z,5.22
2022-08-14T14:31:58.663Z,5.50
2022-08-14T14:34:34.061Z,6.32
2022-08-14T14:37:06.186Z,6.07
2022-08-14T14:40:50.546Z,8.73
2022-08-14T14:42:31.997Z,6.60
2022-08-14T14:45:14.244Z,5.05
2022-08-14T14:47:48.351Z,6.85
2022-08-14T14:50:23.036Z,5.47
2022-08-14T14:52:54.046Z,5.60
2022-08-14T14:56:50.258Z,6.13
2022-08-14T14:58:35.488Z,5.95
2022-08-14T15:01:08.502Z,5.88
2022-08-14T15:03:43.235Z,5.72
2022-08-14T15:06:17.564Z,6.25
2022-08-14T15:08:55.638Z,6.60
2022-08-14T15:11:30.208Z,6.90
2022-08-14T15:14:00.528Z,6.30
2022-08-14T15:16:30.004Z,6.03
2022-08-14T15:18:59.083Z,6.13
2022-08-14T15:21:29.622Z,7.10
2022-08-14T15:24:01.038Z,5.63
2022-08-14T15:26:31.498Z,6.40
2022-08-14T15:29:05.903Z,5.47
2022-08-14T15:31:37.410Z,6.00
2022-08-14T15:34:45.498Z,5.22
2022-08-14T15:37:11.170Z,5.88
2022-08-14T15:39:45.888Z,5.10
2022-08-14T15:42:17.084Z,6.45
2022-08-14T15:44:56.906Z,6.72
2022-08-14T15:47:29.547Z,5.40
2022-08-14T15:50:00.516Z,6.95
2022-08-14T15:55:06.376Z,5.30
2022-08-14T15:57:36.653Z,5.22
2022-08-14T16:00:43.261Z,5.22
2022-08-14T16:03:14.295Z,5.00
2022-08-14T16:05:46.291Z,5.30
2022-08-14T16:08:27.464Z,5.60
2022-08-14T16:11:00.382Z,5.75
2022-08-14T16:13:42.209Z,6.00
2022-08-14T16:16:47.076Z,7.25
2022-08-14T16:19:09.523Z,6.05
2022-08-14T16:22:01.515Z,6.78
2022-08-14T16:25:01.943Z,11.05
2022-08-14T16:27:38.861Z,9.02
2022-08-14T16:30:20.682Z,6.30
2022-08-14T16:32:56.457Z,6.55
2022-08-14T16:35:42.984Z,6.70
2022-08-14T16:38:46.209Z,9.10
2022-08-14T16:41:23.348Z,5.88
2022-08-14T16:43:59.221Z,5.22
2022-08-14T16:46:32.837Z,5.65
2022-08-14T16:49:02.702Z,5.40
2022-08-14T16:51:34.789Z,5.77
2022-08-14T16:54:34.323Z,5.47
2022-08-14T16:57:16.221Z,5.88
2022-08-14T16:59:57.324Z,6.38
2022-08-14T17:02:39.045Z,7.65
2022-08-14T17:05:22.571Z,8.10
2022-08-14T17:08:32.079Z,7.63
2022-08-14T17:11:10.089Z,8.15
2022-08-14T17:13:59.385Z,8.57
2022-08-14T17:16:35.686Z,7.72
2022-08-14T17:19:13.462Z,9.07
2022-08-14T17:21:47.155Z,9.00
2022-08-14T17:24:57.647Z,9.52
2022-08-14T17:27:09.295Z,11.48
2022-08-14T17:29:44.753Z,11.88
2022-08-14T17:32:56.603Z,11.70
2022-08-14T17:35:58.777Z,10.73
2022-08-14T17:38:38.830Z,7.47
2022-08-14T17:41:32.717Z,6.38
2022-08-14T17:44:34.038Z,6.57
2022-08-14T17:47:18.403Z,6.35
2022-08-14T17:49:53.941Z,6.82
2022-08-14T17:52:34.196Z,6.03
2022-08-14T17:55:07.260Z,7.22
2022-08-14T17:57:41.147Z,5.28
2022-08-14T18:00:15.110Z,6.75
2022-08-14T18:02:50.435Z,6.85
2022-08-14T18:06:08.486Z,8.57
2022-08-14T18:08:32.727Z,11.95
2022-08-14T18:11:04.028Z,14.30
2022-08-14T18:13:49.782Z,12.57
2022-08-14T18:16:22.643Z,7.18
2022-08-14T18:18:53.547Z,8.07
2022-08-14T18:21:56.254Z,6.43
2022-08-14T18:24:27.990Z,6.55
2022-08-14T18:27:06.885Z,7.38
2022-08-14T18:29:54.607Z,7.85
2022-08-14T18:32:55.409Z,6.00
2022-08-14T18:35:45.669Z,9.13
2022-08-14T18:38:45.639Z,6.43
2022-08-14T18:41:36.788Z,6.50
2022-08-14T18:44:10.690Z,7.20
2022-08-14T18:47:21.120Z,7.78
2022-08-14T18:50:27.922Z,7.40
2022-08-14T18:53:10.865Z,7.07
2022-08-14T18:55:54.441Z,8.07
2022-08-14T18:58:30.393Z,7.50
2022-08-14T19:01:09.041Z,7.72
2022-08-14T19:03:58.147Z,9.02
2022-08-14T19:06:56.328Z,7.57
2022-08-14T19:09:58.827Z,6.88
2022-08-14T19:12:57.637Z,6.88
2022-08-14T19:15:30.120Z,8.13
2022-08-14T19:18:14.737Z,8.10
2022-08-14T19:20:52.781Z,8.32
2022-08-14T19:23:43.974Z,11.48
2022-08-14T19:26:36.741Z,9.05
2022-08-14T19:29:36.078Z,9.35
2022-08-14T19:32:42.082Z,7.30
2022-08-14T19:35:49.646Z,6.57
2022-08-14T19:38:51.946Z,8.82
2022-08-14T19:41:29.488Z,7.38
2022-08-14T19:44:12.660Z,6.85
2022-08-14T19:47:01.290Z,7.57
2022-08-14T19:50:24.535Z,9.23
2022-08-14T19:52:29.798Z,8.52
2022-08-14T19:55:02.138Z,7.78
2022-08-14T19:57:33.385Z,7.18
2022-08-14T20:00:28.438Z,7.05
2022-08-14T20:03:10.727Z,10.75
2022-08-14T20:05:42.829Z,11.93
2022-08-14T20:11:00.561Z,25.23
2022-08-14T20:11:21.087Z,30.55
2022-08-14T20:14:09.530Z,42.28
2022-08-14T20:16:43.856Z,50.42
2022-08-14T20:19:20.971Z,50.92
2022-08-14T20:22:04.199Z,47.22
2022-08-14T20:24:47.395Z,50.03
2022-08-14T20:27:34.358Z,56.55
2022-08-14T20:30:33.683Z,20.50
2022-08-14T20:33:11.264Z,18.35
2022-08-14T20:35:49.021Z,13.75
2022-08-14T20:38:29.398Z,12.68
2022-08-14T20:41:24.816Z,12.50
2022-08-14T20:44:20.748Z,14.60
2022-08-14T20:46:58.943Z,10.32
2022-08-14T20:49:33.796Z,13.90
2022-08-14T20:52:19.277Z,15.23
2022-08-14T20:54:51.378Z,18.23
2022-08-14T20:57:20.909Z,15.73
2022-08-14T20:59:57.541Z,17.75
2022-08-14T21:02:46.754Z,13.93
2022-08-14T21:05:33.936Z,14.13
2022-08-14T21:08:09.965Z,12.30
2022-08-14T21:10:56.690Z,12.43
2022-08-14T21:14:24.815Z,12.07
2022-08-14T21:16:34.682Z,13.07
2022-08-14T21:19:08.621Z,12.50
2022-08-14T21:21:40.846Z,11.85
2022-08-14T21:24:39.635Z,12.45
2022-08-14T21:27:12.956Z,11.07
2022-08-14T21:29:55.057Z,11.10
2022-08-14T21:32:46.957Z,10.60
2022-08-14T21:35:22.929Z,9.77
2022-08-14T21:37:53.663Z,9.82
2022-08-14T21:40:42.343Z,9.05
2022-08-14T21:43:19.422Z,9.23
2022-08-14T21:45:53.021Z,8.73
2022-08-14T21:48:26.319Z,8.65
2022-08-14T21:51:54.538Z,11.57
2022-08-14T21:53:59.424Z,8.95
2022-08-14T21:56:38.146Z,8.95
2022-08-14T21:59:17.557Z,8.63
2022-08-14T22:02:01.509Z,10.07
2022-08-14T22:04:40.820Z,10.20
2022-08-14T22:07:16.903Z,11.32
2022-08-14T22:09:55.161Z,10.82
2022-08-14T22:12:47.338Z,10.23
2022-08-14T22:15:19.777Z,12.48
2022-08-14T22:17:54.242Z,11.70
2022-08-14T22:20:29.228Z,11.32
2022-08-14T22:23:05.260Z,9.23
2022-08-14T22:25:41.074Z,9.48
2022-08-14T22:28:15.558Z,9.73
2022-08-14T22:30:45.930Z,10.30
2022-08-14T22:33:16.340Z,10.00
2022-08-14T22:35:56.403Z,8.82
2022-08-14T22:38:37.602Z,8.73
2022-08-14T22:41:25.808Z,8.85
2022-08-14T22:44:06.838Z,8.40
2022-08-14T22:46:38.453Z,9.15
2022-08-14T22:49:16.880Z,8.80
2022-08-14T22:52:05.004Z,10.63
2022-08-14T22:54:55.568Z,10.05
2022-08-14T22:57:41.710Z,10.88
2022-08-14T23:00:17.487Z,8.80
2022-08-14T23:02:47.130Z,12.48
2022-08-14T23:05:39.811Z,14.10
2022-08-14T23:08:59.798Z,13.07
2022-08-14T23:11:07.459Z,12.75
2022-08-14T23:13:36.576Z,15.38
2022-08-14T23:16:09.398Z,14.35
2022-08-14T23:18:38.993Z,12.73
2022-08-14T23:21:10.798Z,14.38
2022-08-14T23:23:41.510Z,14.90
2022-08-14T23:26:49.922Z,14.85
2022-08-14T23:29:03.045Z,13.48
2022-08-14T23:31:35.228Z,12.60
2022-08-14T23:34:07.496Z,13.73
2022-08-14T23:36:53.622Z,12.90
2022-08-14T23:39:32.221Z,13.45
2022-08-14T23:42:10.341Z,16.83
2022-08-14T23:44:40.764Z,17.65
2022-08-14T23:47:26.197Z,13.80
2022-08-14T23:50:03.465Z,14.27
2022-08-14T23:53:04.116Z,15.48
2022-08-14T23:55:32.857Z,13.45
2022-08-14T23:58:03.185Z,11.45
